Archival Weather

Snohomish County (Paine Fld)

Everett, Washington (KPAE)

Report from: Tuesday, May 21, 2024 3:53 AM PDT
Current time: Saturday, June 22, 2024 2:20 AM PDT

Current weather – Weather history – Daily summaries
Weather forecast

Temperature10.0°C (50.0°F)
Wind chill8.0°C (46.3°F)
Dew point6.7°C (44.1°F)
Winds 8 kts (4.1 m/s, 9.2 mph) South-Southeast (150°)
Visibility10 mi. (16.1 km)
Clouds Few clouds 2,300 ft. (701 m)
Ceiling: Broken clouds 5,000 ft. (1,524 m)
Altimeter30.16 in.Hg (1021 mB)
Relative humidity80 %
Density altitude-732 ft. (-223 m)
Sea-level pressure102.1 kPa (1021 mB, 30.16 in.Hg)
Remarks Fully automated report
Automated weather observing station with precipitation discriminator
Flight conditions Visual Meteorological Conditions
Raw dataKPAE 211053Z AUTO 15008KT 10SM FEW023 BKN050 10/07 A3016 RMK AO2 SLP214 T01000067
An error has occurred. This application may no longer respond until reloaded. Reload 🗙